createdAt,value
2022-12-25T00:00:31.337Z,100987.66
2022-12-25T00:03:22.249Z,100990.38
2022-12-25T00:05:52.749Z,100991.44
2022-12-25T00:08:24.363Z,100986.97
2022-12-25T00:11:01.248Z,100993.88
2022-12-25T00:13:33.288Z,100986.13
2022-12-25T00:16:11.382Z,100989.38
2022-12-25T00:18:43.132Z,100994.81
2022-12-25T00:21:14.061Z,100992.31
2022-12-25T00:23:46.444Z,100989.84
2022-12-25T00:26:20.147Z,100992.66
2022-12-25T00:28:54.614Z,100998.19
2022-12-25T00:31:29.415Z,101006.38
2022-12-25T00:34:01.862Z,101007.53
2022-12-25T00:36:37.784Z,101008.03
2022-12-25T00:39:12.983Z,101000.84
2022-12-25T00:41:55.861Z,100999.06
2022-12-25T00:44:27.452Z,101006.19
2022-12-25T00:47:01.514Z,101006.00
2022-12-25T00:49:33.452Z,101004.63
2022-12-25T00:52:04.949Z,101017.94
2022-12-25T00:54:36.316Z,101024.72
2022-12-25T00:57:07.315Z,101034.16
2022-12-25T00:59:38.606Z,101039.16
2022-12-25T01:02:25.193Z,101042.28
2022-12-25T01:04:58.696Z,101040.75
2022-12-25T01:07:30.589Z,101041.25
2022-12-25T01:10:14.202Z,101043.88
2022-12-25T01:12:46.004Z,101040.19
2022-12-25T01:15:17.117Z,101045.97
2022-12-25T01:17:54.165Z,101049.41
2022-12-25T01:20:25.054Z,101048.47
2022-12-25T01:22:58.771Z,101051.06
2022-12-25T01:25:32.669Z,101051.94
2022-12-25T01:28:02.778Z,101058.38
2022-12-25T01:30:34.344Z,101057.44
2022-12-25T01:33:07.571Z,101073.25
2022-12-25T01:35:42.036Z,101066.22
2022-12-25T01:38:12.495Z,101074.91
2022-12-25T01:40:43.178Z,101075.28
2022-12-25T01:43:24.949Z,101086.69
2022-12-25T01:45:55.805Z,101080.88
2022-12-25T01:48:40.188Z,101077.09
2022-12-25T01:51:24.307Z,101081.16
2022-12-25T01:53:59.320Z,101081.25
2022-12-25T01:56:32.946Z,101080.88
2022-12-25T01:59:11.162Z,101082.75
2022-12-25T02:01:43.735Z,101089.09
2022-12-25T02:04:24.928Z,101093.06
2022-12-25T02:07:15.749Z,101087.44
2022-12-25T02:09:46.726Z,101086.50
2022-12-25T02:12:21.414Z,101092.97
2022-12-25T02:14:54.739Z,101092.47
2022-12-25T02:17:41.336Z,101091.84
2022-12-25T02:20:36.097Z,101093.72
2022-12-25T02:23:37.313Z,101098.50
2022-12-25T02:26:19.487Z,101106.03
2022-12-25T02:29:01.707Z,101101.63
2022-12-25T02:31:54.368Z,101110.50
2022-12-25T02:34:38.248Z,101101.03
2022-12-25T02:37:15.016Z,101108.50
2022-12-25T02:40:02.551Z,101120.84
2022-12-25T02:42:56.426Z,101129.28
2022-12-25T02:45:56.492Z,101131.88
2022-12-25T02:48:42.101Z,101122.03
2022-12-25T02:51:27.802Z,101123.84
2022-12-25T02:54:13.079Z,101110.25
2022-12-25T02:57:03.264Z,101116.97
2022-12-25T02:59:51.461Z,101123.03
2022-12-25T03:02:39.055Z,101118.00
2022-12-25T03:05:25.475Z,101112.97
2022-12-25T03:07:56.936Z,101119.88
2022-12-25T03:10:41.120Z,101111.09
2022-12-25T03:13:16.396Z,101115.69
2022-12-25T03:15:59.235Z,101102.41
2022-12-25T03:18:34.145Z,101108.50
2022-12-25T03:21:20.586Z,101109.31
2022-12-25T03:24:09.781Z,101115.88
2022-12-25T03:26:52.342Z,101118.69
2022-12-25T03:29:34.854Z,101123.56
2022-12-25T03:32:15.601Z,101120.84
2022-12-25T03:35:13.499Z,101125.50
2022-12-25T03:38:34.326Z,101131.59
2022-12-25T03:41:25.901Z,101126.72
2022-12-25T03:44:14.532Z,101128.41
2022-12-25T03:47:03.605Z,101132.91
2022-12-25T03:49:54.542Z,101133.81
2022-12-25T03:52:43.561Z,101139.06
2022-12-25T03:55:28.304Z,101132.72
2022-12-25T03:58:11.444Z,101142.22
2022-12-25T04:00:54.215Z,101145.84
2022-12-25T04:03:37.333Z,101148.28
2022-12-25T04:06:20.139Z,101146.59
2022-12-25T04:09:05.809Z,101148.28
2022-12-25T04:12:02.707Z,101153.03
2022-12-25T04:14:45.917Z,101157.50
2022-12-25T04:17:28.385Z,101157.13
2022-12-25T04:20:11.110Z,101154.13
2022-12-25T04:22:53.532Z,101156.75
2022-12-25T04:25:38.819Z,101162.53
2022-12-25T04:28:21.184Z,101163.28
2022-12-25T04:31:04.228Z,101163.56
2022-12-25T04:33:46.624Z,101161.06
2022-12-25T04:36:16.893Z,101159.56
2022-12-25T04:38:46.966Z,101165.59
2022-12-25T04:41:19.848Z,101167.41
2022-12-25T04:43:49.849Z,101171.41
2022-12-25T04:46:20.345Z,101179.41
2022-12-25T04:48:50.300Z,101191.78
2022-12-25T04:51:21.886Z,101185.63
2022-12-25T04:53:52.773Z,101186.28
2022-12-25T04:56:25.959Z,101175.75
2022-12-25T04:58:55.916Z,101166.25
2022-12-25T05:01:26.378Z,101170.53
2022-12-25T05:03:56.477Z,101180.03
2022-12-25T05:06:26.788Z,101171.56
2022-12-25T05:08:56.951Z,101169.78
2022-12-25T05:11:29.975Z,101172.41
2022-12-25T05:14:00.276Z,101167.38
2022-12-25T05:16:31.001Z,101173.59
2022-12-25T05:19:01.062Z,101173.91
2022-12-25T05:21:31.336Z,101173.16
2022-12-25T05:24:01.318Z,101177.22
2022-12-25T05:26:34.207Z,101172.47
2022-12-25T05:29:04.092Z,101168.63
2022-12-25T05:31:34.537Z,101158.47
2022-12-25T05:34:04.569Z,101159.03
2022-12-25T05:36:34.840Z,101166.97
2022-12-25T05:39:04.785Z,101166.28
2022-12-25T05:41:37.603Z,101164.53
2022-12-25T05:44:07.788Z,101158.72
2022-12-25T05:46:38.104Z,101162.00
2022-12-25T05:49:08.205Z,101162.38
2022-12-25T05:51:38.561Z,101158.25
2022-12-25T05:54:08.583Z,101163.06
2022-12-25T05:56:42.766Z,101161.56
2022-12-25T05:59:12.779Z,101142.41
2022-12-25T06:01:43.170Z,101150.72
2022-12-25T06:04:13.503Z,101141.28
2022-12-25T06:06:44.131Z,101146.00
2022-12-25T06:09:15.856Z,101139.84
2022-12-25T06:11:48.868Z,101138.25
2022-12-25T06:14:18.959Z,101148.09
2022-12-25T06:16:49.285Z,101148.41
2022-12-25T06:19:19.229Z,101142.22
2022-12-25T06:21:49.652Z,101143.00
2022-12-25T06:24:21.634Z,101137.47
2022-12-25T06:26:54.762Z,101128.28
2022-12-25T06:29:24.795Z,101141.97
2022-12-25T06:31:57.359Z,101150.81
2022-12-25T06:34:27.690Z,101159.47
2022-12-25T06:36:58.098Z,101156.53
2022-12-25T06:39:28.174Z,101152.50
2022-12-25T06:42:01.146Z,101150.38
2022-12-25T06:44:31.123Z,101149.75
2022-12-25T06:47:01.462Z,101153.09
2022-12-25T06:49:31.607Z,101152.25
2022-12-25T06:52:01.865Z,101152.34
2022-12-25T06:54:31.903Z,101158.19
2022-12-25T06:57:04.752Z,101160.72
2022-12-25T06:59:34.689Z,101169.19
2022-12-25T07:02:05.088Z,101168.59
2022-12-25T07:04:39.635Z,101179.94
2022-12-25T07:07:11.553Z,101184.41
2022-12-25T07:09:42.618Z,101186.75
2022-12-25T07:12:21.330Z,101185.59
2022-12-25T07:14:51.492Z,101188.78
2022-12-25T07:17:25.157Z,101190.63
2022-12-25T07:19:56.638Z,101189.59
2022-12-25T07:22:27.081Z,101193.34
2022-12-25T07:24:59.975Z,101200.34
2022-12-25T07:27:33.334Z,101210.00
2022-12-25T07:30:03.386Z,101208.72
2022-12-25T07:32:33.883Z,101215.22
2022-12-25T07:35:03.885Z,101213.19
2022-12-25T07:37:34.094Z,101216.19
2022-12-25T07:40:04.114Z,101210.25
2022-12-25T07:42:37.091Z,101204.47
2022-12-25T07:45:08.149Z,101211.09
2022-12-25T07:47:38.403Z,101210.75
2022-12-25T07:50:10.165Z,101217.88
2022-12-25T07:52:43.672Z,101210.91
2022-12-25T07:55:13.921Z,101212.75
2022-12-25T07:57:46.798Z,101206.09
2022-12-25T08:00:18.410Z,101201.88
2022-12-25T08:02:51.685Z,101200.66
2022-12-25T08:05:21.884Z,101215.81
2022-12-25T08:07:57.650Z,101227.22
2022-12-25T08:10:28.521Z,101213.91
2022-12-25T08:13:01.990Z,101216.44
2022-12-25T08:15:33.961Z,101211.88
2022-12-25T08:18:04.552Z,101215.06
2022-12-25T08:20:34.859Z,101212.22
2022-12-25T08:23:05.175Z,101203.59
2022-12-25T08:25:35.480Z,101214.28
2022-12-25T08:28:08.354Z,101200.47
2022-12-25T08:30:41.096Z,101198.13
2022-12-25T08:33:11.618Z,101191.28
2022-12-25T08:35:41.541Z,101187.16
2022-12-25T08:38:12.000Z,101197.00
2022-12-25T08:40:42.120Z,101190.97
2022-12-25T08:43:15.007Z,101193.06
2022-12-25T08:45:45.202Z,101188.75
2022-12-25T08:48:16.083Z,101179.94
2022-12-25T08:50:48.187Z,101189.66
2022-12-25T08:53:19.281Z,101183.16
2022-12-25T08:55:49.300Z,101175.09
2022-12-25T08:58:22.149Z,101164.13
2022-12-25T09:00:52.189Z,101164.84
2022-12-25T09:03:22.584Z,101160.28
2022-12-25T09:05:52.743Z,101157.03
2022-12-25T09:08:23.313Z,101151.91
2022-12-25T09:10:53.338Z,101158.88
2022-12-25T09:13:26.459Z,101149.69
2022-12-25T09:15:56.632Z,101149.38
2022-12-25T09:18:27.054Z,101149.56
2022-12-25T09:21:01.703Z,101141.66
2022-12-25T09:23:32.404Z,101142.38
2022-12-25T09:26:02.718Z,101141.66
2022-12-25T09:28:35.992Z,101139.69
2022-12-25T09:31:07.244Z,101147.81
2022-12-25T09:33:37.968Z,101144.09
2022-12-25T09:36:11.880Z,101135.06
2022-12-25T09:38:44.128Z,101135.63
2022-12-25T09:41:24.559Z,101138.97
2022-12-25T09:44:08.576Z,101138.22
2022-12-25T09:46:53.903Z,101147.25
2022-12-25T09:49:30.415Z,101155.81
2022-12-25T09:52:05.089Z,101162.63
2022-12-25T09:54:44.460Z,101148.56
2022-12-25T09:57:17.354Z,101145.94
2022-12-25T09:59:50.292Z,101142.78
2022-12-25T10:02:50.897Z,101147.19
2022-12-25T10:05:40.424Z,101151.91
2022-12-25T10:08:22.941Z,101151.91
2022-12-25T10:11:05.596Z,101157.03
2022-12-25T10:13:58.760Z,101152.09
2022-12-25T10:16:37.679Z,101152.84
2022-12-25T10:19:24.241Z,101145.59
2022-12-25T10:21:59.555Z,101142.88
2022-12-25T10:24:36.489Z,101147.53
2022-12-25T10:27:16.221Z,101135.03
2022-12-25T10:29:52.826Z,101129.63
2022-12-25T10:32:26.013Z,101130.19
2022-12-25T10:34:58.324Z,101130.94
2022-12-25T10:37:29.032Z,101129.31
2022-12-25T10:39:59.528Z,101133.59
2022-12-25T10:42:40.531Z,101130.72
2022-12-25T10:45:12.414Z,101113.72
2022-12-25T10:47:55.007Z,101121.22
2022-12-25T10:50:30.321Z,101118.97
2022-12-25T10:53:04.747Z,101110.09
2022-12-25T10:55:36.943Z,101103.94
2022-12-25T10:58:09.049Z,101105.81
2022-12-25T11:00:39.353Z,101105.31
2022-12-25T11:03:24.754Z,101113.50
2022-12-25T11:05:55.417Z,101116.88
2022-12-25T11:08:28.404Z,101113.81
2022-12-25T11:11:06.175Z,101105.28
2022-12-25T11:13:40.516Z,101098.22
2022-12-25T11:16:17.903Z,101098.16
2022-12-25T11:18:53.578Z,101111.59
2022-12-25T11:21:26.947Z,101112.34
2022-12-25T11:24:02.332Z,101109.41
2022-12-25T11:26:37.841Z,101110.88
2022-12-25T11:29:27.713Z,101112.97
2022-12-25T11:32:01.361Z,101100.09
2022-12-25T11:34:38.915Z,101098.97
2022-12-25T11:37:17.203Z,101092.53
2022-12-25T11:39:47.774Z,101093.81
2022-12-25T11:42:27.203Z,101084.81
2022-12-25T11:45:04.133Z,101074.38
2022-12-25T11:47:39.991Z,101062.38
2022-12-25T11:50:23.678Z,101046.03
2022-12-25T11:52:58.096Z,101027.66
2022-12-25T11:55:38.120Z,101023.25
2022-12-25T11:58:18.513Z,101015.84
2022-12-25T12:00:50.757Z,100999.34
2022-12-25T12:03:27.005Z,100995.44
2022-12-25T12:06:06.780Z,100999.75
2022-12-25T12:08:38.128Z,100994.63
2022-12-25T12:11:20.588Z,100995.44
2022-12-25T12:14:04.295Z,100998.06
2022-12-25T12:16:34.760Z,101006.53
2022-12-25T12:19:13.958Z,101007.50
2022-12-25T12:21:52.481Z,101005.69
2022-12-25T12:24:24.350Z,101009.25
2022-12-25T12:27:05.029Z,101008.00
2022-12-25T12:29:42.320Z,101004.44
2022-12-25T12:32:31.668Z,100985.13
2022-12-25T12:35:03.387Z,100965.66
2022-12-25T12:37:39.399Z,100960.09
2022-12-25T12:40:24.724Z,100966.81
2022-12-25T12:42:56.124Z,100975.69
2022-12-25T12:45:30.346Z,100984.69
2022-12-25T12:48:01.738Z,100985.72
2022-12-25T12:50:39.989Z,100996.41
2022-12-25T12:53:38.221Z,100979.91
2022-12-25T12:56:14.308Z,100975.41
2022-12-25T12:58:50.096Z,100972.56
2022-12-25T13:01:36.090Z,100977.38
2022-12-25T13:04:29.968Z,100970.47
2022-12-25T13:07:13.704Z,100969.53
2022-12-25T13:10:00.478Z,100979.47
2022-12-25T13:12:30.656Z,100972.88
2022-12-25T13:15:11.225Z,100978.81
2022-12-25T13:17:46.963Z,100976.34
2022-12-25T13:20:27.967Z,100974.31
2022-12-25T13:22:58.001Z,100970.03
2022-12-25T13:25:31.632Z,100955.09
2022-12-25T13:28:01.633Z,100958.63
2022-12-25T13:30:32.350Z,100966.03
2022-12-25T13:33:02.435Z,100963.88
2022-12-25T13:35:33.078Z,100963.66
2022-12-25T13:38:03.180Z,100959.06
2022-12-25T13:40:37.205Z,100947.88
2022-12-25T13:43:05.364Z,100948.09
2022-12-25T13:45:38.240Z,100939.19
2022-12-25T13:48:17.395Z,100936.56
2022-12-25T13:50:48.762Z,100929.56
2022-12-25T13:53:20.058Z,100924.66
2022-12-25T13:55:57.468Z,100913.03
2022-12-25T13:58:33.223Z,100909.69
2022-12-25T14:01:08.084Z,100910.66
2022-12-25T14:03:42.644Z,100897.75
2022-12-25T14:06:21.578Z,100894.63
2022-12-25T14:08:57.644Z,100891.63
2022-12-25T14:11:41.015Z,100894.44
2022-12-25T14:14:19.956Z,100898.63
2022-12-25T14:16:53.559Z,100896.97
2022-12-25T14:19:27.616Z,100910.78
2022-12-25T14:22:02.018Z,100910.84
2022-12-25T14:24:34.097Z,100923.84
2022-12-25T14:27:09.689Z,100924.78
2022-12-25T14:29:42.250Z,100916.94
2022-12-25T14:32:18.188Z,100917.03
2022-12-25T14:34:50.404Z,100910.84
2022-12-25T14:37:23.826Z,100903.16
2022-12-25T14:40:02.129Z,100896.13
2022-12-25T14:42:37.492Z,100890.91
2022-12-25T14:45:09.677Z,100881.38
2022-12-25T14:47:53.615Z,100883.69
2022-12-25T14:50:30.455Z,100880.00
2022-12-25T14:53:09.335Z,100870.47
2022-12-25T14:55:40.294Z,100870.25
2022-12-25T14:58:24.632Z,100855.22
2022-12-25T15:00:57.991Z,100842.84
2022-12-25T15:03:32.033Z,100838.34
2022-12-25T15:06:03.991Z,100846.19
2022-12-25T15:08:35.877Z,100851.09
2022-12-25T15:11:05.900Z,100853.94
2022-12-25T15:13:38.749Z,100850.97
2022-12-25T15:16:15.292Z,100844.78
2022-12-25T15:18:48.529Z,100840.63
2022-12-25T15:21:20.365Z,100831.00
2022-12-25T15:23:50.748Z,100836.13
2022-12-25T15:26:20.828Z,100849.94
2022-12-25T15:28:54.005Z,100841.84
2022-12-25T15:31:26.130Z,100827.00
2022-12-25T15:33:58.439Z,100825.22
2022-12-25T15:36:29.595Z,100825.94
2022-12-25T15:39:00.436Z,100846.75
2022-12-25T15:41:46.910Z,100842.47
2022-12-25T15:44:20.590Z,100838.06
2022-12-25T15:46:51.348Z,100824.03
2022-12-25T15:49:22.263Z,100825.72
2022-12-25T15:51:52.557Z,100821.34
2022-12-25T15:54:23.461Z,100810.53
2022-12-25T15:56:56.870Z,100806.13
2022-12-25T15:59:30.749Z,100805.31
2022-12-25T16:02:03.218Z,100805.09
2022-12-25T16:04:34.377Z,100800.81
2022-12-25T16:07:04.745Z,100805.81
2022-12-25T16:09:35.493Z,100798.91
2022-12-25T16:12:06.094Z,100797.00
2022-12-25T16:14:39.174Z,100774.28
2022-12-25T16:17:15.656Z,100769.78
2022-12-25T16:19:47.153Z,100768.81
2022-12-25T16:22:21.781Z,100763.72
2022-12-25T16:24:52.943Z,100767.78
2022-12-25T16:27:24.017Z,100772.91
2022-12-25T16:30:04.244Z,100775.38
2022-12-25T16:32:34.625Z,100771.00
2022-12-25T16:35:05.529Z,100764.09
2022-12-25T16:37:36.676Z,100772.06
2022-12-25T16:40:08.440Z,100757.91
2022-12-25T16:42:38.780Z,100756.97
2022-12-25T16:45:12.807Z,100748.16
2022-12-25T16:47:42.953Z,100744.47
2022-12-25T16:50:13.853Z,100739.97
2022-12-25T16:52:43.795Z,100730.19
2022-12-25T16:55:14.122Z,100715.34
2022-12-25T16:57:47.654Z,100722.25
2022-12-25T17:00:22.086Z,100719.28
2022-12-25T17:02:55.972Z,100707.16
2022-12-25T17:05:26.987Z,100693.13
2022-12-25T17:07:56.930Z,100678.25
2022-12-25T17:10:27.543Z,100675.53
2022-12-25T17:12:57.823Z,100678.00
2022-12-25T17:15:30.756Z,100668.50
2022-12-25T17:18:01.059Z,100669.09
2022-12-25T17:20:31.421Z,100672.44
2022-12-25T17:23:01.797Z,100667.28
2022-12-25T17:25:32.620Z,100656.63
2022-12-25T17:28:02.771Z,100651.38
2022-12-25T17:30:36.246Z,100654.81
2022-12-25T17:33:07.096Z,100650.06
2022-12-25T17:35:39.754Z,100646.47
2022-12-25T17:38:10.145Z,100645.66
2022-12-25T17:40:40.872Z,100655.03
2022-12-25T17:43:15.592Z,100649.00
2022-12-25T17:45:52.405Z,100644.72
2022-12-25T17:48:23.628Z,100647.09
2022-12-25T17:50:54.611Z,100646.25
2022-12-25T17:53:28.096Z,100639.09
2022-12-25T17:56:00.180Z,100635.66
2022-12-25T17:58:30.827Z,100618.91
2022-12-25T18:01:08.821Z,100609.94
2022-12-25T18:03:40.245Z,100608.28
2022-12-25T18:06:14.813Z,100594.38
2022-12-25T18:08:46.927Z,100581.03
2022-12-25T18:11:20.601Z,100581.03
2022-12-25T18:13:53.775Z,100576.63
2022-12-25T18:16:29.936Z,100568.78
2022-12-25T18:19:01.754Z,100567.81
2022-12-25T18:21:33.193Z,100569.47
2022-12-25T18:24:05.263Z,100581.50
2022-12-25T18:26:36.435Z,100577.34
2022-12-25T18:29:07.469Z,100590.56
2022-12-25T18:31:40.431Z,100588.75
2022-12-25T18:34:10.768Z,100591.38
2022-12-25T18:36:41.802Z,100586.13
2022-12-25T18:39:15.682Z,100573.06
2022-12-25T18:41:58.799Z,100549.25
2022-12-25T18:44:32.115Z,100566.50
2022-12-25T18:47:05.935Z,100550.78
2022-12-25T18:49:36.819Z,100548.78
2022-12-25T18:52:47.929Z,100545.31
2022-12-25T18:54:58.258Z,100529.75
2022-12-25T18:57:29.289Z,100523.41
2022-12-25T19:00:03.092Z,100506.88
2022-12-25T19:02:36.379Z,100499.72
2022-12-25T19:05:08.858Z,100497.66
2022-12-25T19:07:40.011Z,100497.81
2022-12-25T19:10:11.460Z,100494.94
2022-12-25T19:12:42.043Z,100489.56
2022-12-25T19:15:13.051Z,100496.84
2022-12-25T19:17:46.050Z,100489.69
2022-12-25T19:20:16.030Z,100486.13
2022-12-25T19:22:46.288Z,100488.50
2022-12-25T19:25:18.342Z,100484.22
2022-12-25T19:27:48.694Z,100473.84
2022-12-25T19:30:18.743Z,100457.44
2022-12-25T19:32:51.922Z,100463.75
2022-12-25T19:35:22.008Z,100457.00
2022-12-25T19:37:54.350Z,100452.56
2022-12-25T19:40:26.412Z,100446.59
2022-12-25T19:42:56.967Z,100449.13
2022-12-25T19:45:27.056Z,100435.06
2022-12-25T19:48:00.705Z,100436.84
2022-12-25T19:50:37.170Z,100430.53
2022-12-25T19:53:10.538Z,100433.00
2022-12-25T19:55:40.550Z,100434.66
2022-12-25T19:58:10.895Z,100427.66
2022-12-25T20:00:41.904Z,100428.63
2022-12-25T20:03:14.988Z,100422.53
2022-12-25T20:05:47.311Z,100425.03
2022-12-25T20:08:17.541Z,100422.16
2022-12-25T20:10:52.230Z,100418.69
2022-12-25T20:13:22.640Z,100420.34
2022-12-25T20:15:53.050Z,100398.72
2022-12-25T20:18:25.994Z,100405.59
2022-12-25T20:21:03.299Z,100400.50
2022-12-25T20:23:34.044Z,100403.84
2022-12-25T20:26:05.509Z,100412.38
2022-12-25T20:28:37.932Z,100407.25
2022-12-25T20:31:09.208Z,100413.19
2022-12-25T20:33:42.105Z,100410.59
2022-12-25T20:36:12.847Z,100394.16
2022-12-25T20:38:43.531Z,100396.78
2022-12-25T20:41:31.180Z,100388.22
2022-12-25T20:44:01.929Z,100392.41
2022-12-25T20:46:32.000Z,100395.00
2022-12-25T20:49:05.111Z,100378.22
2022-12-25T20:51:35.082Z,100372.13
2022-12-25T20:54:08.624Z,100384.28
2022-12-25T20:56:40.323Z,100382.25
2022-12-25T20:59:12.615Z,100378.50
2022-12-25T21:01:42.823Z,100371.22
2022-12-25T21:04:16.655Z,100363.00
2022-12-25T21:06:46.854Z,100370.44
2022-12-25T21:09:17.176Z,100359.00
2022-12-25T21:11:47.221Z,100359.88
2022-12-25T21:14:20.567Z,100352.13
2022-12-25T21:16:50.920Z,100350.09
2022-12-25T21:19:24.025Z,100341.53
2022-12-25T21:21:54.703Z,100340.00
2022-12-25T21:24:25.001Z,100342.78
2022-12-25T21:26:55.101Z,100336.72
2022-12-25T21:30:14.933Z,100349.56
2022-12-25T21:32:58.030Z,100352.03
2022-12-25T21:35:30.950Z,100346.94
2022-12-25T21:38:00.999Z,100346.78
2022-12-25T21:40:31.367Z,100342.38
2022-12-25T21:43:01.319Z,100336.31
2022-12-25T21:45:32.282Z,100335.09
2022-12-25T21:48:03.586Z,100326.94
2022-12-25T21:50:49.084Z,100333.56
2022-12-25T21:53:19.917Z,100342.38
2022-12-25T21:56:02.390Z,100340.34
2022-12-25T21:58:32.461Z,100326.97
2022-12-25T22:01:04.896Z,100332.22
2022-12-25T22:03:35.043Z,100342.41
2022-12-25T22:06:21.807Z,100335.63
2022-12-25T22:08:51.975Z,100338.25
2022-12-25T22:11:34.878Z,100357.56
2022-12-25T22:14:17.404Z,100353.03
2022-12-25T22:17:00.877Z,100334.84
2022-12-25T22:19:44.380Z,100343.25
2022-12-25T22:22:21.463Z,100335.09
2022-12-25T22:24:52.771Z,100343.53
2022-12-25T22:27:24.074Z,100352.25
2022-12-25T22:29:55.781Z,100349.63
2022-12-25T22:32:27.013Z,100342.03
2022-12-25T22:34:58.412Z,100331.28
2022-12-25T22:37:31.722Z,100328.66
2022-12-25T22:40:03.486Z,100322.28
2022-12-25T22:42:34.856Z,100326.19
2022-12-25T22:45:06.216Z,100324.94
2022-12-25T22:47:38.300Z,100316.09
2022-12-25T22:50:11.327Z,100316.78
2022-12-25T22:52:46.904Z,100318.88
2022-12-25T22:55:21.036Z,100311.69
2022-12-25T22:57:52.811Z,100307.16
2022-12-25T23:00:23.619Z,100309.06
2022-12-25T23:02:54.695Z,100305.63
2022-12-25T23:05:26.388Z,100302.88
2022-12-25T23:08:03.419Z,100299.81
2022-12-25T23:10:40.732Z,100287.69
2022-12-25T23:14:00.736Z,100285.91
2022-12-25T23:16:34.951Z,100281.06
2022-12-25T23:19:18.648Z,100277.31
2022-12-25T23:22:01.602Z,100265.16
2022-12-25T23:24:47.711Z,100262.81
2022-12-25T23:27:18.708Z,100275.94
2022-12-25T23:29:46.610Z,100280.91
2022-12-25T23:32:22.497Z,100272.75
2022-12-25T23:34:52.912Z,100276.47
2022-12-25T23:37:23.675Z,100282.69
2022-12-25T23:39:56.376Z,100278.00
2022-12-25T23:42:27.523Z,100269.81
2022-12-25T23:44:57.668Z,100278.13
2022-12-25T23:47:28.259Z,100281.97
2022-12-25T23:49:58.171Z,100274.50
2022-12-25T23:52:28.714Z,100272.56
2022-12-25T23:55:01.309Z,100292.06
2022-12-25T23:57:31.857Z,100283.31
